Relevés horaires Oron (Suisse)


Relevés horaires à Oron - Jeudi 09 Août 2018
Heure UTC1 Température [°C] Vent [km/h] Hum. [%] Pres.4 [hPa] Visi. [Km] Nébu. [octa] Préc.5 [mm] Cond.
2m. Res. Ros. Dir.2 Vit. Moy. Raf.3
23:00 14.0 14.0 12.2 NNO 3.7 -- -- 89 850 -- -- -- --
22:00 16.2 15.7 12.7 ONO 13.0 -- -- 80 850 -- -- -- --
21:00 17.1 16.8 14.9 SO 13.0 -- 24.1 87 850(1.9/3h) -- -- -- --
20:00 17.0 17.0 15.0 S 5.6 -- -- 88 850 -- -- -- --
19:00 17.1 17.1 15.2 S 9.3 -- -- 89 850 -- -- -- --
18:00 17.6 17.6 15.0 S 5.6 -- 46.3 85 850(0.6/3h) -- -- 0.3/12h
--
17:00 17.7 17.1 15.6 SO 20.4 -- -- 88 850 -- -- -- --
16:00 18.0 17.4 15.9 OSO 20.4 -- -- 88 850 -- -- -- --
15:00 18.3 18 16.2 SSO 16.7 -- 46.3 88 850(0.8/3h) -- -- -- --
14:00 17.9 17.1 16.3 OSO 24.1 -- -- 90 850 -- -- -- --
13:00 18.5 18.4 16.3 SSE 14.8 -- -- 87 850 -- -- -- --
12:00 18.9 18.9 16.1 SSO 14.8 -- 33.3 84 850(1.2/3h) -- -- 0/6h
--
11:00 18.6 18.6 16.5 S 7.4 -- -- 88 850 -- -- -- --
10:00 19.8 19.7 17.0 SSO 20.4 -- -- 84 850 -- -- -- --
09:00 20.5 20.5 17.3 SSO 14.8 -- 22.2 82 850(1.1/3h) -- -- -- --
08:00 19.7 19.7 15.3 S 9.3 -- -- 76 850 -- -- -- --
07:00 18.3 18.3 14.2 NNO 3.7 -- -- 77 850 -- -- -- --
06:00 16.8 16.8 14.2 N 1.9 -- 18.5 85 850(-0.4/3h) -- -- 1/12h
18.8/24h
--
05:00 15.9 15.9 13.7 NNO 3.7 -- -- 87 850 -- -- -- --
04:00 14.9 14.6 13.6 E 9.3 -- -- 92 850 -- -- -- --
03:00 16.3 16.3 14.5 E 5.6 -- 18.5 89 850(-1.5/3h) -- -- -- --
02:00 16.8 16.8 15.6 SO 3.7 -- -- 93 850 -- -- -- --
01:00 17.7 17.7 14.6 S 5.6 -- -- 82 850 -- -- -- --
00:00 16.9 16.9 15.9 SO 1.9 -- 29.6 94 850(0.0/3h) -- -- 1/6h
--

1 Coordinated Universal Time. Actuellement il est 13:00 locale et 11:00 UTC.

2 Le vent souffle depuis la direction indiquée vers la direction oposée.

3 Les rafales max. sont disponible 40 min après l'heure du relevé.

4 Pour les stations d'altitude (plus de 600m) le géopotentiel du niveau le plus proche de la pression obligatoire est indiqué.

5 Les stations disposant d'un diffuseur peuvent indiquer "trace". Cela signifie que des précipitations ont touchés le sol mais que la quantité est inférieure à 0.1 mm.

Récapitulatif de la journée
Température [°C] Vent [km/h] Ensoleillement4 [h] Precipitations totale5 [mm] Pression [Hpa]
Min1 Max.2 Moy.3 Max. Min Max.
14.2 20.7 0 46.3 4 h 6 min 6.3 850.0 850.0

1 Température minimale relevée entre 18:00 UTC la veille et 18:00 UTC le jour donné.

2 Température maximale relevée entre 06:00 UTC le jour donné et 06:00 UTC le lendemain.

3 Vent moyen de la journée basé sur les relevés horaires.

4 Ensoleillement en heures relevé entre 06:00 UTC la veille et 06:00 UTC le jour donné.

5 Précipitations totales tombées entre 06:00 UTC la jour donné et 06:00 UTC le lendemain.

Graphiques horaires